createdAt,value
2023-01-20T00:00:26.893Z,92.30
2023-01-20T00:04:28.871Z,92.30
2023-01-20T00:08:30.794Z,92.20
2023-01-20T00:12:33.123Z,92.10
2023-01-20T00:16:35.103Z,91.90
2023-01-20T00:20:37.036Z,92.20
2023-01-20T00:24:39.018Z,92.20
2023-01-20T00:28:40.993Z,92.20
2023-01-20T00:32:44.994Z,92.20
2023-01-20T00:36:47.037Z,92.20
2023-01-20T00:40:54.961Z,92.40
2023-01-20T00:44:56.919Z,92.20
2023-01-20T00:48:58.897Z,92.10
2023-01-20T00:53:00.891Z,92.30
2023-01-20T00:57:02.882Z,92.10
2023-01-20T01:01:05.198Z,91.90
2023-01-20T01:05:07.424Z,91.90
2023-01-20T01:09:09.432Z,92.00
2023-01-20T01:13:11.648Z,91.90
2023-01-20T01:17:13.591Z,91.90
2023-01-20T01:21:16.881Z,91.90
2023-01-20T01:25:19.133Z,92.10
2023-01-20T01:29:21.273Z,91.70
2023-01-20T01:33:23.225Z,91.70
2023-01-20T01:37:25.246Z,91.80
2023-01-20T01:41:27.153Z,91.70
2023-01-20T01:45:30.740Z,91.80
2023-01-20T01:49:33.446Z,92.10
2023-01-20T01:53:43.794Z,91.80
2023-01-20T01:57:47.070Z,92.00
2023-01-20T02:01:52.201Z,92.00
2023-01-20T02:05:54.939Z,92.00
2023-01-20T02:09:57.314Z,91.90
2023-01-20T02:13:59.751Z,92.00
2023-01-20T02:18:13.003Z,91.80
2023-01-20T02:22:26.639Z,92.00
2023-01-20T02:26:31.309Z,92.00
2023-01-20T02:31:10.751Z,91.90
2023-01-20T02:35:42.995Z,92.10
2023-01-20T02:40:10.943Z,91.70
2023-01-20T02:44:51.805Z,92.00
2023-01-20T02:49:00.937Z,92.10
2023-01-20T02:53:06.537Z,91.90
2023-01-20T02:57:14.529Z,91.70
2023-01-20T03:01:25.603Z,91.60
2023-01-20T03:05:31.578Z,91.60
2023-01-20T03:09:48.485Z,91.80
2023-01-20T03:14:08.782Z,92.00
2023-01-20T03:18:10.776Z,91.80
2023-01-20T03:22:12.772Z,91.90
2023-01-20T03:26:16.874Z,92.00
2023-01-20T03:30:19.198Z,92.00
2023-01-20T03:34:24.859Z,92.10
2023-01-20T03:38:26.796Z,92.00
2023-01-20T03:42:34.421Z,92.00
2023-01-20T03:47:01.336Z,92.00
2023-01-20T03:51:16.145Z,92.40
2023-01-20T03:55:26.469Z,92.50
2023-01-20T03:59:28.571Z,92.80
2023-01-20T04:03:32.891Z,92.90
2023-01-20T04:07:36.630Z,92.70
2023-01-20T04:11:38.718Z,92.60
2023-01-20T04:15:44.537Z,92.70
2023-01-20T04:19:46.661Z,92.80
2023-01-20T04:24:03.474Z,92.70
2023-01-20T04:28:05.411Z,93.10
2023-01-20T04:32:07.699Z,93.00
2023-01-20T04:36:09.738Z,92.90
2023-01-20T04:40:12.395Z,92.90
2023-01-20T04:44:14.355Z,93.00
2023-01-20T04:48:16.265Z,93.10
2023-01-20T04:52:18.184Z,93.10
2023-01-20T04:56:20.068Z,93.00
2023-01-20T05:00:22.126Z,93.00
2023-01-20T05:04:24.092Z,92.70
2023-01-20T05:08:26.104Z,92.80
2023-01-20T05:12:28.002Z,92.70
2023-01-20T05:16:32.105Z,92.60
2023-01-20T05:20:34.101Z,92.60
2023-01-20T05:24:36.113Z,92.70
2023-01-20T05:28:38.133Z,92.70
2023-01-20T05:32:42.034Z,92.70
2023-01-20T05:36:43.943Z,92.80
2023-01-20T05:40:45.845Z,92.70
2023-01-20T05:44:47.809Z,92.60
2023-01-20T05:48:49.725Z,92.50
2023-01-20T05:52:51.853Z,92.60
2023-01-20T05:56:53.771Z,92.90
2023-01-20T06:00:55.765Z,93.00
2023-01-20T06:05:01.573Z,93.10
2023-01-20T06:09:03.652Z,93.30
2023-01-20T06:13:05.836Z,93.20
2023-01-20T06:17:07.749Z,93.10
2023-01-20T06:21:09.872Z,93.00
2023-01-20T06:25:11.796Z,92.80
2023-01-20T06:29:13.683Z,92.80
2023-01-20T06:33:15.643Z,92.80
2023-01-20T06:37:17.546Z,93.00
2023-01-20T06:41:21.133Z,92.90
2023-01-20T06:45:23.083Z,93.00
2023-01-20T06:49:25.211Z,93.10
2023-01-20T06:53:27.196Z,93.10
2023-01-20T06:57:29.167Z,93.40
2023-01-20T07:01:31.714Z,93.30
2023-01-20T07:05:33.680Z,93.50
2023-01-20T07:09:35.732Z,93.70
2023-01-20T07:13:37.783Z,93.80
2023-01-20T07:17:39.756Z,93.90
2023-01-20T07:21:41.667Z,93.90
2023-01-20T07:25:43.587Z,94.00
2023-01-20T07:29:45.652Z,93.90
2023-01-20T07:33:48.264Z,94.10
2023-01-20T07:37:50.167Z,94.00
2023-01-20T07:41:52.155Z,93.90
2023-01-20T07:45:59.266Z,93.80
2023-01-20T07:50:01.245Z,94.20
2023-01-20T07:54:04.479Z,94.30
2023-01-20T07:58:06.452Z,94.00
2023-01-20T08:02:10.323Z,94.40
2023-01-20T08:06:15.883Z,93.90
2023-01-20T08:10:18.010Z,93.80
2023-01-20T08:14:20.012Z,93.90
2023-01-20T08:18:22.226Z,93.60
2023-01-20T08:22:25.570Z,94.00
2023-01-20T08:26:29.876Z,94.20
2023-01-20T08:30:31.968Z,94.30
2023-01-20T08:34:34.656Z,94.10
2023-01-20T08:38:36.807Z,93.50
2023-01-20T08:42:39.674Z,93.30
2023-01-20T08:46:42.513Z,94.20
2023-01-20T08:50:44.462Z,94.80
2023-01-20T08:54:46.280Z,93.70
2023-01-20T08:58:48.389Z,93.60
2023-01-20T09:02:50.261Z,93.40
2023-01-20T09:06:52.849Z,93.90
2023-01-20T09:10:54.877Z,95.20
2023-01-20T09:14:56.785Z,94.60
2023-01-20T09:18:58.664Z,95.50
2023-01-20T09:23:03.843Z,94.70
2023-01-20T09:27:05.817Z,95.90
2023-01-20T09:31:09.528Z,94.60
2023-01-20T09:35:11.665Z,95.10
2023-01-20T09:39:33.269Z,94.50
2023-01-20T09:43:54.708Z,94.80
2023-01-20T09:48:42.636Z,94.10
2023-01-20T09:53:03.038Z,93.30
2023-01-20T09:57:09.430Z,93.00
2023-01-20T10:01:21.233Z,92.80
2023-01-20T10:05:37.087Z,92.50
2023-01-20T10:09:53.952Z,92.00
2023-01-20T10:14:18.178Z,91.70
2023-01-20T10:18:50.110Z,91.60
2023-01-20T10:23:12.404Z,91.70
2023-01-20T10:27:14.377Z,91.70
2023-01-20T10:31:25.447Z,92.00
2023-01-20T10:35:31.091Z,91.70
2023-01-20T10:39:42.229Z,91.40
2023-01-20T10:43:44.763Z,91.80
2023-01-20T10:47:52.667Z,91.70
2023-01-20T10:52:09.180Z,91.30
2023-01-20T10:56:13.855Z,91.50
2023-01-20T11:00:25.708Z,91.50
2023-01-20T11:04:28.357Z,91.00
2023-01-20T11:08:30.601Z,91.40
2023-01-20T11:12:40.035Z,91.30
2023-01-20T11:16:46.661Z,91.10
2023-01-20T11:20:57.014Z,91.30
2023-01-20T11:25:00.242Z,91.50
2023-01-20T11:29:11.363Z,91.30
2023-01-20T11:33:23.254Z,91.50
2023-01-20T11:37:28.085Z,91.20
2023-01-20T11:41:31.608Z,90.80
2023-01-20T11:45:36.510Z,91.70
2023-01-20T11:49:38.421Z,91.30
2023-01-20T11:53:40.315Z,90.80
2023-01-20T11:58:02.417Z,92.80
2023-01-20T12:02:07.369Z,91.40
2023-01-20T12:06:27.255Z,91.30
2023-01-20T12:10:34.511Z,91.50
2023-01-20T12:14:48.940Z,91.40
2023-01-20T12:19:02.163Z,90.70
2023-01-20T12:23:10.494Z,90.30
2023-01-20T12:27:22.562Z,91.10
2023-01-20T12:31:24.733Z,91.40
2023-01-20T12:35:31.165Z,91.00
2023-01-20T12:40:05.139Z,91.70
2023-01-20T12:44:35.745Z,91.20
2023-01-20T12:48:40.241Z,90.80
2023-01-20T12:53:27.264Z,91.50
2023-01-20T12:57:43.274Z,92.20
2023-01-20T13:02:15.382Z,92.50
2023-01-20T13:06:38.284Z,91.40
2023-01-20T13:10:57.782Z,91.20
2023-01-20T13:15:03.297Z,91.60
2023-01-20T13:19:19.676Z,90.90
2023-01-20T13:23:30.941Z,90.60
2023-01-20T13:27:35.602Z,90.70
2023-01-20T13:31:37.639Z,89.70
2023-01-20T13:35:49.612Z,90.70
2023-01-20T13:39:54.389Z,90.80
2023-01-20T13:43:56.667Z,92.00
2023-01-20T13:47:58.693Z,91.10
2023-01-20T13:52:00.742Z,90.80
2023-01-20T13:56:02.964Z,90.50
2023-01-20T14:00:12.457Z,90.50
2023-01-20T14:04:19.649Z,90.20
2023-01-20T14:08:22.686Z,90.50
2023-01-20T14:12:25.357Z,91.20
2023-01-20T14:16:46.624Z,90.40
2023-01-20T14:20:57.945Z,90.60
2023-01-20T14:25:01.844Z,90.30
2023-01-20T14:29:03.891Z,90.00
2023-01-20T14:33:10.930Z,90.60
2023-01-20T14:37:27.431Z,91.00
2023-01-20T14:41:34.111Z,90.70
2023-01-20T14:45:37.605Z,90.40
2023-01-20T14:49:39.986Z,90.50
2023-01-20T14:53:42.059Z,90.50
2023-01-20T14:57:44.637Z,90.60
2023-01-20T15:01:53.025Z,90.70
2023-01-20T15:06:10.155Z,90.00
2023-01-20T15:10:15.034Z,89.10
2023-01-20T15:14:17.495Z,88.40
2023-01-20T15:18:23.640Z,90.50
2023-01-20T15:22:27.369Z,90.70
2023-01-20T15:26:30.781Z,90.30
2023-01-20T15:30:32.780Z,89.10
2023-01-20T15:34:34.918Z,89.30
2023-01-20T15:38:36.842Z,89.70
2023-01-20T15:42:38.677Z,89.00
2023-01-20T15:46:41.308Z,89.70
2023-01-20T15:50:43.561Z,89.30
2023-01-20T15:54:45.747Z,88.80
2023-01-20T15:58:48.488Z,89.00
2023-01-20T16:02:50.808Z,88.80
2023-01-20T16:06:52.866Z,88.90
2023-01-20T16:10:54.705Z,89.30
2023-01-20T16:14:57.344Z,90.10
2023-01-20T16:18:59.349Z,89.70
2023-01-20T16:23:01.412Z,89.40
2023-01-20T16:27:04.916Z,89.50
2023-01-20T16:31:06.930Z,89.90
2023-01-20T16:35:09.208Z,90.10
2023-01-20T16:39:11.303Z,90.20
2023-01-20T16:43:13.286Z,90.20
2023-01-20T16:47:15.266Z,90.10
2023-01-20T16:51:21.714Z,90.10
2023-01-20T16:55:24.134Z,90.30
2023-01-20T16:59:26.069Z,90.20
2023-01-20T17:03:28.130Z,90.40
2023-01-20T17:07:30.039Z,90.40
2023-01-20T17:11:34.858Z,90.50
2023-01-20T17:15:40.583Z,90.60
2023-01-20T17:19:42.677Z,90.60
2023-01-20T17:23:49.178Z,90.70
2023-01-20T17:27:51.378Z,90.60
2023-01-20T17:31:53.339Z,90.90
2023-01-20T17:35:57.097Z,90.80
2023-01-20T17:40:00.462Z,90.90
2023-01-20T17:44:04.116Z,90.80
2023-01-20T17:48:06.429Z,90.50
2023-01-20T17:52:08.350Z,90.40
2023-01-20T17:56:13.322Z,90.50
2023-01-20T18:00:16.207Z,90.40
2023-01-20T18:04:19.195Z,90.20
2023-01-20T18:08:21.264Z,90.00
2023-01-20T18:12:23.224Z,90.20
2023-01-20T18:16:29.247Z,90.00
2023-01-20T18:20:31.321Z,90.20
2023-01-20T18:24:33.945Z,90.20
2023-01-20T18:28:36.600Z,90.10
2023-01-20T18:32:38.542Z,90.40
2023-01-20T18:36:42.525Z,90.60
2023-01-20T18:40:44.467Z,90.60
2023-01-20T18:44:46.392Z,90.40
2023-01-20T18:48:51.982Z,90.20
2023-01-20T18:52:56.168Z,90.40
2023-01-20T18:56:58.359Z,90.40
2023-01-20T19:01:09.817Z,90.20
2023-01-20T19:05:11.856Z,90.20
2023-01-20T19:09:16.075Z,90.40
2023-01-20T19:13:18.109Z,90.30
2023-01-20T19:17:20.304Z,89.80
2023-01-20T19:21:24.076Z,89.40
2023-01-20T19:25:29.639Z,90.00
2023-01-20T19:29:31.790Z,90.20
2023-01-20T19:33:34.876Z,90.40
2023-01-20T19:37:38.522Z,90.10
2023-01-20T19:41:40.587Z,90.10
2023-01-20T19:45:45.952Z,90.20
2023-01-20T19:49:48.146Z,90.20
2023-01-20T19:53:55.628Z,89.50
2023-01-20T19:57:57.625Z,90.00
2023-01-20T20:01:59.738Z,90.40
2023-01-20T20:06:02.263Z,90.40
2023-01-20T20:10:05.783Z,90.10
2023-01-20T20:14:10.804Z,89.10
2023-01-20T20:18:12.786Z,90.10
2023-01-20T20:22:14.791Z,90.00
2023-01-20T20:26:17.137Z,88.40
2023-01-20T20:30:19.415Z,90.00
2023-01-20T20:34:21.426Z,90.00
2023-01-20T20:38:23.431Z,89.80
2023-01-20T20:42:25.501Z,90.00
2023-01-20T20:46:29.489Z,90.00
2023-01-20T20:50:31.684Z,89.00
2023-01-20T20:54:33.612Z,88.50
2023-01-20T20:58:35.934Z,88.90
2023-01-20T21:02:39.790Z,89.00
2023-01-20T21:06:42.474Z,90.00
2023-01-20T21:10:44.426Z,90.20
2023-01-20T21:14:46.441Z,90.00
2023-01-20T21:18:49.226Z,90.10
2023-01-20T21:22:52.133Z,89.90
2023-01-20T21:26:54.145Z,89.30
2023-01-20T21:30:56.141Z,89.40
2023-01-20T21:35:01.884Z,89.50
2023-01-20T21:39:05.363Z,89.30
2023-01-20T21:43:26.087Z,89.60
2023-01-20T21:47:28.174Z,89.00
2023-01-20T21:51:48.549Z,89.30
2023-01-20T21:55:50.452Z,89.40
2023-01-20T21:59:52.795Z,89.70
2023-01-20T22:03:54.841Z,89.20
2023-01-20T22:07:56.743Z,89.40
2023-01-20T22:11:59.147Z,89.50
2023-01-20T22:16:04.986Z,88.90
2023-01-20T22:20:07.405Z,88.80
2023-01-20T22:24:11.263Z,88.60
2023-01-20T22:28:13.133Z,88.00
2023-01-20T22:32:15.041Z,88.60
2023-01-20T22:36:16.990Z,88.30
2023-01-20T22:40:19.011Z,90.00
2023-01-20T22:44:20.998Z,90.10
2023-01-20T22:48:22.988Z,90.10
2023-01-20T22:52:25.039Z,90.30
2023-01-20T22:56:32.058Z,88.60
2023-01-20T23:00:34.088Z,88.00
2023-01-20T23:04:36.046Z,87.80
2023-01-20T23:08:38.755Z,87.40
2023-01-20T23:12:40.693Z,88.10
2023-01-20T23:16:43.429Z,88.30
2023-01-20T23:20:53.838Z,88.30
2023-01-20T23:24:55.835Z,88.00
2023-01-20T23:28:57.889Z,88.60
2023-01-20T23:32:59.852Z,88.30
2023-01-20T23:37:01.827Z,88.00
2023-01-20T23:41:04.497Z,88.60
2023-01-20T23:45:07.079Z,89.70
2023-01-20T23:49:09.038Z,89.60
2023-01-20T23:53:10.946Z,88.90
2023-01-20T23:57:12.959Z,88.60
